sensor_id;sensor_type;location;lat;lon;timestamp;P1;durP1;ratioP1;P2;durP2;ratioP2
65230;SDS011;51813;40.666;16.602;2023-11-21T00:01:16;3.03;;;1.42;;
65230;SDS011;51813;40.666;16.602;2023-11-21T00:03:42;2.70;;;1.60;;
65230;SDS011;51813;40.666;16.602;2023-11-21T00:06:08;2.55;;;1.65;;
65230;SDS011;51813;40.666;16.602;2023-11-21T00:08:35;2.45;;;1.30;;
65230;SDS011;51813;40.666;16.602;2023-11-21T00:11:01;2.53;;;1.50;;
65230;SDS011;51813;40.666;16.602;2023-11-21T00:13:30;2.55;;;1.38;;
65230;SDS011;51813;40.666;16.602;2023-11-21T00:15:56;3.47;;;1.50;;
65230;SDS011;51813;40.666;16.602;2023-11-21T00:18:22;3.00;;;1.40;;
65230;SDS011;51813;40.666;16.602;2023-11-21T00:20:47;3.33;;;1.70;;
65230;SDS011;51813;40.666;16.602;2023-11-21T00:23:13;3.08;;;1.73;;
65230;SDS011;51813;40.666;16.602;2023-11-21T00:25:39;3.10;;;1.50;;
65230;SDS011;51813;40.666;16.602;2023-11-21T00:28:05;2.70;;;1.33;;
65230;SDS011;51813;40.666;16.602;2023-11-21T00:30:31;2.45;;;1.33;;
65230;SDS011;51813;40.666;16.602;2023-11-21T00:32:57;3.08;;;1.40;;
65230;SDS011;51813;40.666;16.602;2023-11-21T00:35:22;2.72;;;1.70;;
65230;SDS011;51813;40.666;16.602;2023-11-21T00:37:48;2.42;;;1.45;;
65230;SDS011;51813;40.666;16.602;2023-11-21T00:40:15;3.25;;;1.48;;
65230;SDS011;51813;40.666;16.602;2023-11-21T00:42:41;3.20;;;1.67;;
65230;SDS011;51813;40.666;16.602;2023-11-21T00:45:07;3.28;;;1.55;;
65230;SDS011;51813;40.666;16.602;2023-11-21T00:47:33;3.03;;;1.52;;
65230;SDS011;51813;40.666;16.602;2023-11-21T00:49:59;3.50;;;1.48;;
65230;SDS011;51813;40.666;16.602;2023-11-21T00:52:24;2.58;;;1.40;;
65230;SDS011;51813;40.666;16.602;2023-11-21T00:54:51;3.22;;;1.40;;
65230;SDS011;51813;40.666;16.602;2023-11-21T00:57:16;2.28;;;1.30;;
65230;SDS011;51813;40.666;16.602;2023-11-21T00:59:42;3.42;;;1.38;;
65230;SDS011;51813;40.666;16.602;2023-11-21T01:02:08;2.47;;;1.50;;
65230;SDS011;51813;40.666;16.602;2023-11-21T01:04:35;2.35;;;1.40;;
65230;SDS011;51813;40.666;16.602;2023-11-21T01:07:01;3.00;;;1.48;;
65230;SDS011;51813;40.666;16.602;2023-11-21T01:09:27;3.38;;;1.52;;
65230;SDS011;51813;40.666;16.602;2023-11-21T01:11:53;2.30;;;1.40;;
65230;SDS011;51813;40.666;16.602;2023-11-21T01:14:19;2.53;;;1.42;;
65230;SDS011;51813;40.666;16.602;2023-11-21T01:16:44;3.28;;;1.60;;
65230;SDS011;51813;40.666;16.602;2023-11-21T01:19:10;2.85;;;1.45;;
65230;SDS011;51813;40.666;16.602;2023-11-21T01:21:36;3.30;;;1.63;;
65230;SDS011;51813;40.666;16.602;2023-11-21T01:24:02;3.30;;;1.45;;
65230;SDS011;51813;40.666;16.602;2023-11-21T01:26:28;3.20;;;1.60;;
65230;SDS011;51813;40.666;16.602;2023-11-21T01:28:54;3.15;;;1.70;;
65230;SDS011;51813;40.666;16.602;2023-11-21T01:31:19;3.25;;;1.58;;
65230;SDS011;51813;40.666;16.602;2023-11-21T01:33:45;2.88;;;1.50;;
65230;SDS011;51813;40.666;16.602;2023-11-21T01:36:11;3.05;;;1.60;;
65230;SDS011;51813;40.666;16.602;2023-11-21T01:38:37;3.75;;;1.77;;
65230;SDS011;51813;40.666;16.602;2023-11-21T01:41:03;3.00;;;1.70;;
65230;SDS011;51813;40.666;16.602;2023-11-21T01:43:29;2.50;;;1.30;;
65230;SDS011;51813;40.666;16.602;2023-11-21T01:45:57;3.63;;;1.65;;
65230;SDS011;51813;40.666;16.602;2023-11-21T01:48:23;2.63;;;1.40;;
65230;SDS011;51813;40.666;16.602;2023-11-21T01:50:50;3.00;;;1.60;;
65230;SDS011;51813;40.666;16.602;2023-11-21T01:53:17;2.53;;;1.45;;
65230;SDS011;51813;40.666;16.602;2023-11-21T01:55:43;4.03;;;1.70;;
65230;SDS011;51813;40.666;16.602;2023-11-21T01:58:10;2.60;;;1.50;;
65230;SDS011;51813;40.666;16.602;2023-11-21T02:00:37;2.35;;;1.40;;
65230;SDS011;51813;40.666;16.602;2023-11-21T02:03:03;3.03;;;1.33;;
65230;SDS011;51813;40.666;16.602;2023-11-21T02:05:29;2.85;;;1.70;;
65230;SDS011;51813;40.666;16.602;2023-11-21T02:07:55;1.98;;;1.33;;
65230;SDS011;51813;40.666;16.602;2023-11-21T02:10:21;2.53;;;1.40;;
65230;SDS011;51813;40.666;16.602;2023-11-21T02:12:51;3.22;;;1.60;;
65230;SDS011;51813;40.666;16.602;2023-11-21T02:15:17;2.78;;;1.45;;
65230;SDS011;51813;40.666;16.602;2023-11-21T02:17:46;3.00;;;1.30;;
65230;SDS011;51813;40.666;16.602;2023-11-21T02:20:16;2.53;;;1.45;;
65230;SDS011;51813;40.666;16.602;2023-11-21T02:22:52;3.75;;;1.85;;
65230;SDS011;51813;40.666;16.602;2023-11-21T02:25:31;3.17;;;1.63;;
65230;SDS011;51813;40.666;16.602;2023-11-21T02:27:58;3.78;;;1.77;;
65230;SDS011;51813;40.666;16.602;2023-11-21T02:30:25;3.05;;;1.73;;
65230;SDS011;51813;40.666;16.602;2023-11-21T02:32:53;2.90;;;1.67;;
65230;SDS011;51813;40.666;16.602;2023-11-21T02:35:19;3.03;;;1.52;;
65230;SDS011;51813;40.666;16.602;2023-11-21T02:37:47;2.85;;;1.65;;
65230;SDS011;51813;40.666;16.602;2023-11-21T02:40:13;3.15;;;1.58;;
65230;SDS011;51813;40.666;16.602;2023-11-21T02:42:43;3.50;;;1.48;;
65230;SDS011;51813;40.666;16.602;2023-11-21T02:45:09;2.85;;;1.55;;
65230;SDS011;51813;40.666;16.602;2023-11-21T02:47:38;3.00;;;1.63;;
65230;SDS011;51813;40.666;16.602;2023-11-21T02:50:04;3.03;;;1.58;;
65230;SDS011;51813;40.666;16.602;2023-11-21T02:52:32;2.85;;;1.60;;
65230;SDS011;51813;40.666;16.602;2023-11-21T02:54:58;2.95;;;1.50;;
65230;SDS011;51813;40.666;16.602;2023-11-21T02:57:24;2.65;;;1.40;;
65230;SDS011;51813;40.666;16.602;2023-11-21T02:59:50;3.08;;;1.65;;
65230;SDS011;51813;40.666;16.602;2023-11-21T03:02:15;3.10;;;1.42;;
65230;SDS011;51813;40.666;16.602;2023-11-21T03:04:42;3.00;;;1.60;;
65230;SDS011;51813;40.666;16.602;2023-11-21T03:07:08;2.80;;;1.48;;
65230;SDS011;51813;40.666;16.602;2023-11-21T03:09:34;2.67;;;1.55;;
65230;SDS011;51813;40.666;16.602;2023-11-21T03:12:00;2.90;;;1.58;;
65230;SDS011;51813;40.666;16.602;2023-11-21T03:14:27;3.75;;;1.77;;
65230;SDS011;51813;40.666;16.602;2023-11-21T03:16:52;2.83;;;1.60;;
65230;SDS011;51813;40.666;16.602;2023-11-21T03:19:18;3.03;;;1.50;;
65230;SDS011;51813;40.666;16.602;2023-11-21T03:21:44;3.67;;;1.55;;
65230;SDS011;51813;40.666;16.602;2023-11-21T03:24:09;3.47;;;1.63;;
65230;SDS011;51813;40.666;16.602;2023-11-21T03:26:35;2.90;;;1.40;;
65230;SDS011;51813;40.666;16.602;2023-11-21T03:29:02;2.83;;;1.60;;
65230;SDS011;51813;40.666;16.602;2023-11-21T03:31:28;4.43;;;1.77;;
65230;SDS011;51813;40.666;16.602;2023-11-21T03:33:53;3.50;;;1.52;;
65230;SDS011;51813;40.666;16.602;2023-11-21T03:36:19;3.05;;;1.70;;
65230;SDS011;51813;40.666;16.602;2023-11-21T03:38:45;3.42;;;1.42;;
65230;SDS011;51813;40.666;16.602;2023-11-21T03:41:11;3.22;;;1.52;;
65230;SDS011;51813;40.666;16.602;2023-11-21T03:43:36;2.88;;;1.60;;
65230;SDS011;51813;40.666;16.602;2023-11-21T03:46:02;2.42;;;1.45;;
65230;SDS011;51813;40.666;16.602;2023-11-21T03:48:29;3.10;;;1.70;;
65230;SDS011;51813;40.666;16.602;2023-11-21T03:50:54;3.20;;;1.45;;
65230;SDS011;51813;40.666;16.602;2023-11-21T03:53:20;2.65;;;1.40;;
65230;SDS011;51813;40.666;16.602;2023-11-21T03:55:46;4.18;;;1.50;;
65230;SDS011;51813;40.666;16.602;2023-11-21T03:58:11;3.35;;;1.60;;
65230;SDS011;51813;40.666;16.602;2023-11-21T04:00:37;3.08;;;1.73;;
65230;SDS011;51813;40.666;16.602;2023-11-21T04:03:03;3.42;;;1.77;;
65230;SDS011;51813;40.666;16.602;2023-11-21T04:05:30;3.53;;;1.70;;
65230;SDS011;51813;40.666;16.602;2023-11-21T04:07:56;2.78;;;1.60;;
65230;SDS011;51813;40.666;16.602;2023-11-21T04:10:21;2.63;;;1.50;;
65230;SDS011;51813;40.666;16.602;2023-11-21T04:12:47;2.92;;;1.42;;
65230;SDS011;51813;40.666;16.602;2023-11-21T04:15:13;3.45;;;1.77;;
65230;SDS011;51813;40.666;16.602;2023-11-21T04:17:40;2.53;;;1.40;;
65230;SDS011;51813;40.666;16.602;2023-11-21T04:20:06;2.83;;;1.30;;
65230;SDS011;51813;40.666;16.602;2023-11-21T04:22:38;2.88;;;1.70;;
65230;SDS011;51813;40.666;16.602;2023-11-21T04:25:11;2.50;;;1.40;;
65230;SDS011;51813;40.666;16.602;2023-11-21T04:30:05;2.90;;;1.65;;
65230;SDS011;51813;40.666;16.602;2023-11-21T04:32:31;3.30;;;1.60;;
65230;SDS011;51813;40.666;16.602;2023-11-21T04:34:58;4.03;;;2.03;;
65230;SDS011;51813;40.666;16.602;2023-11-21T04:37:23;3.22;;;1.60;;
65230;SDS011;51813;40.666;16.602;2023-11-21T04:39:49;2.83;;;1.63;;
65230;SDS011;51813;40.666;16.602;2023-11-21T04:42:15;3.10;;;1.70;;
65230;SDS011;51813;40.666;16.602;2023-11-21T04:44:41;2.97;;;1.77;;
65230;SDS011;51813;40.666;16.602;2023-11-21T04:47:06;2.90;;;1.55;;
65230;SDS011;51813;40.666;16.602;2023-11-21T04:49:32;2.63;;;1.60;;
65230;SDS011;51813;40.666;16.602;2023-11-21T04:51:59;3.38;;;1.77;;
65230;SDS011;51813;40.666;16.602;2023-11-21T04:54:24;3.10;;;1.67;;
65230;SDS011;51813;40.666;16.602;2023-11-21T04:56:51;3.13;;;1.88;;
65230;SDS011;51813;40.666;16.602;2023-11-21T04:59:16;2.88;;;1.70;;
65230;SDS011;51813;40.666;16.602;2023-11-21T05:01:42;2.90;;;1.70;;
65230;SDS011;51813;40.666;16.602;2023-11-21T05:04:08;2.80;;;1.77;;
65230;SDS011;51813;40.666;16.602;2023-11-21T05:06:34;3.05;;;1.70;;
65230;SDS011;51813;40.666;16.602;2023-11-21T05:09:00;2.50;;;1.70;;
65230;SDS011;51813;40.666;16.602;2023-11-21T05:11:26;2.88;;;1.70;;
65230;SDS011;51813;40.666;16.602;2023-11-21T05:13:52;3.00;;;1.60;;
65230;SDS011;51813;40.666;16.602;2023-11-21T05:16:18;3.42;;;1.80;;
65230;SDS011;51813;40.666;16.602;2023-11-21T05:18:44;3.67;;;1.83;;
65230;SDS011;51813;40.666;16.602;2023-11-21T05:21:10;3.22;;;1.75;;
65230;SDS011;51813;40.666;16.602;2023-11-21T05:23:36;3.22;;;1.73;;
65230;SDS011;51813;40.666;16.602;2023-11-21T05:26:02;3.28;;;1.90;;
65230;SDS011;51813;40.666;16.602;2023-11-21T05:28:28;4.55;;;2.20;;
65230;SDS011;51813;40.666;16.602;2023-11-21T05:30:54;2.70;;;1.70;;
65230;SDS011;51813;40.666;16.602;2023-11-21T05:33:20;2.40;;;1.45;;
65230;SDS011;51813;40.666;16.602;2023-11-21T05:35:45;2.30;;;1.60;;
65230;SDS011;51813;40.666;16.602;2023-11-21T05:38:13;2.70;;;1.60;;
65230;SDS011;51813;40.666;16.602;2023-11-21T05:40:39;3.15;;;1.65;;
65230;SDS011;51813;40.666;16.602;2023-11-21T05:43:05;3.40;;;1.80;;
65230;SDS011;51813;40.666;16.602;2023-11-21T05:45:30;3.75;;;1.77;;
65230;SDS011;51813;40.666;16.602;2023-11-21T05:47:57;3.08;;;1.75;;
65230;SDS011;51813;40.666;16.602;2023-11-21T05:50:23;2.60;;;1.40;;
65230;SDS011;51813;40.666;16.602;2023-11-21T05:52:49;2.92;;;1.50;;
65230;SDS011;51813;40.666;16.602;2023-11-21T05:55:15;3.05;;;1.60;;
65230;SDS011;51813;40.666;16.602;2023-11-21T05:57:41;3.15;;;1.45;;
65230;SDS011;51813;40.666;16.602;2023-11-21T06:00:08;4.13;;;1.58;;
65230;SDS011;51813;40.666;16.602;2023-11-21T06:02:50;2.38;;;1.40;;
65230;SDS011;51813;40.666;16.602;2023-11-21T06:05:20;3.00;;;1.50;;
65230;SDS011;51813;40.666;16.602;2023-11-21T06:07:48;3.72;;;1.67;;
65230;SDS011;51813;40.666;16.602;2023-11-21T06:10:14;3.95;;;1.65;;
65230;SDS011;51813;40.666;16.602;2023-11-21T06:12:43;2.72;;;1.50;;
65230;SDS011;51813;40.666;16.602;2023-11-21T06:15:09;2.72;;;1.50;;
65230;SDS011;51813;40.666;16.602;2023-11-21T06:17:38;2.75;;;1.60;;
65230;SDS011;51813;40.666;16.602;2023-11-21T06:20:05;3.03;;;1.50;;
65230;SDS011;51813;40.666;16.602;2023-11-21T06:22:39;2.80;;;1.60;;
65230;SDS011;51813;40.666;16.602;2023-11-21T06:25:06;3.65;;;1.50;;
65230;SDS011;51813;40.666;16.602;2023-11-21T06:27:33;4.35;;;1.58;;
65230;SDS011;51813;40.666;16.602;2023-11-21T06:29:59;2.35;;;1.40;;
65230;SDS011;51813;40.666;16.602;2023-11-21T06:32:25;3.05;;;1.70;;
65230;SDS011;51813;40.666;16.602;2023-11-21T06:34:51;2.65;;;1.40;;
65230;SDS011;51813;40.666;16.602;2023-11-21T06:37:19;3.05;;;1.60;;
65230;SDS011;51813;40.666;16.602;2023-11-21T06:39:48;3.45;;;1.65;;
65230;SDS011;51813;40.666;16.602;2023-11-21T06:42:17;2.85;;;1.75;;
65230;SDS011;51813;40.666;16.602;2023-11-21T06:44:44;3.33;;;1.58;;
65230;SDS011;51813;40.666;16.602;2023-11-21T06:47:10;2.95;;;1.40;;
65230;SDS011;51813;40.666;16.602;2023-11-21T06:49:36;2.70;;;1.30;;
65230;SDS011;51813;40.666;16.602;2023-11-21T06:52:03;2.67;;;1.50;;
65230;SDS011;51813;40.666;16.602;2023-11-21T06:54:30;2.75;;;1.70;;
65230;SDS011;51813;40.666;16.602;2023-11-21T06:56:56;2.60;;;1.52;;
65230;SDS011;51813;40.666;16.602;2023-11-21T06:59:23;2.70;;;1.33;;
65230;SDS011;51813;40.666;16.602;2023-11-21T07:01:49;3.40;;;1.40;;
65230;SDS011;51813;40.666;16.602;2023-11-21T07:04:14;3.38;;;1.40;;
65230;SDS011;51813;40.666;16.602;2023-11-21T07:06:40;4.63;;;1.50;;
65230;SDS011;51813;40.666;16.602;2023-11-21T07:09:06;4.82;;;1.50;;
65230;SDS011;51813;40.666;16.602;2023-11-21T07:11:33;3.45;;;1.42;;
65230;SDS011;51813;40.666;16.602;2023-11-21T07:13:59;4.70;;;1.95;;
65230;SDS011;51813;40.666;16.602;2023-11-21T07:16:31;3.70;;;1.48;;
65230;SDS011;51813;40.666;16.602;2023-11-21T07:18:59;3.25;;;1.65;;
65230;SDS011;51813;40.666;16.602;2023-11-21T07:21:25;3.33;;;1.55;;
65230;SDS011;51813;40.666;16.602;2023-11-21T07:23:51;2.80;;;1.40;;
65230;SDS011;51813;40.666;16.602;2023-11-21T07:26:17;2.83;;;1.33;;
65230;SDS011;51813;40.666;16.602;2023-11-21T07:28:42;2.50;;;1.50;;
65230;SDS011;51813;40.666;16.602;2023-11-21T07:31:08;3.40;;;1.40;;
65230;SDS011;51813;40.666;16.602;2023-11-21T07:33:34;3.00;;;1.35;;
65230;SDS011;51813;40.666;16.602;2023-11-21T07:35:59;2.67;;;1.60;;
65230;SDS011;51813;40.666;16.602;2023-11-21T07:38:25;2.65;;;1.40;;
65230;SDS011;51813;40.666;16.602;2023-11-21T07:40:53;3.08;;;1.60;;
65230;SDS011;51813;40.666;16.602;2023-11-21T07:43:19;4.82;;;1.63;;
65230;SDS011;51813;40.666;16.602;2023-11-21T07:45:45;3.72;;;1.80;;
65230;SDS011;51813;40.666;16.602;2023-11-21T07:48:10;2.85;;;1.40;;
65230;SDS011;51813;40.666;16.602;2023-11-21T07:50:36;3.17;;;1.50;;
65230;SDS011;51813;40.666;16.602;2023-11-21T07:53:02;3.78;;;1.63;;
65230;SDS011;51813;40.666;16.602;2023-11-21T07:55:30;3.45;;;1.50;;
65230;SDS011;51813;40.666;16.602;2023-11-21T07:57:57;2.88;;;1.67;;
65230;SDS011;51813;40.666;16.602;2023-11-21T08:00:22;2.83;;;1.50;;
65230;SDS011;51813;40.666;16.602;2023-11-21T08:02:49;4.95;;;1.83;;
65230;SDS011;51813;40.666;16.602;2023-11-21T08:05:15;4.95;;;1.85;;
65230;SDS011;51813;40.666;16.602;2023-11-21T08:07:41;7.97;;;1.88;;
65230;SDS011;51813;40.666;16.602;2023-11-21T08:10:07;4.05;;;1.88;;
65230;SDS011;51813;40.666;16.602;2023-11-21T08:12:35;7.57;;;2.40;;
65230;SDS011;51813;40.666;16.602;2023-11-21T08:15:01;4.25;;;2.00;;
65230;SDS011;51813;40.666;16.602;2023-11-21T08:17:28;4.40;;;2.20;;
65230;SDS011;51813;40.666;16.602;2023-11-21T08:19:56;5.55;;;2.30;;
65230;SDS011;51813;40.666;16.602;2023-11-21T08:22:23;3.17;;;1.80;;
65230;SDS011;51813;40.666;16.602;2023-11-21T08:24:50;3.33;;;1.80;;
65230;SDS011;51813;40.666;16.602;2023-11-21T08:27:15;3.35;;;1.73;;
65230;SDS011;51813;40.666;16.602;2023-11-21T08:29:41;5.90;;;1.80;;
65230;SDS011;51813;40.666;16.602;2023-11-21T08:32:07;5.80;;;2.20;;
65230;SDS011;51813;40.666;16.602;2023-11-21T08:34:33;3.25;;;2.03;;
65230;SDS011;51813;40.666;16.602;2023-11-21T08:36:59;4.68;;;2.20;;
65230;SDS011;51813;40.666;16.602;2023-11-21T08:39:25;3.72;;;2.10;;
65230;SDS011;51813;40.666;16.602;2023-11-21T08:41:51;4.15;;;2.05;;
65230;SDS011;51813;40.666;16.602;2023-11-21T08:44:17;4.40;;;2.28;;
65230;SDS011;51813;40.666;16.602;2023-11-21T08:46:46;4.00;;;2.10;;
65230;SDS011;51813;40.666;16.602;2023-11-21T08:49:12;5.63;;;2.25;;
65230;SDS011;51813;40.666;16.602;2023-11-21T08:51:38;3.00;;;2.05;;
65230;SDS011;51813;40.666;16.602;2023-11-21T08:54:04;3.72;;;1.90;;
65230;SDS011;51813;40.666;16.602;2023-11-21T08:56:33;2.67;;;1.75;;
65230;SDS011;51813;40.666;16.602;2023-11-21T08:58:59;4.03;;;2.00;;
65230;SDS011;51813;40.666;16.602;2023-11-21T09:01:28;6.50;;;3.08;;
65230;SDS011;51813;40.666;16.602;2023-11-21T09:03:56;2.75;;;1.98;;
65230;SDS011;51813;40.666;16.602;2023-11-21T09:06:23;5.10;;;2.10;;
65230;SDS011;51813;40.666;16.602;2023-11-21T09:08:49;4.15;;;1.88;;
65230;SDS011;51813;40.666;16.602;2023-11-21T09:11:14;3.67;;;1.83;;
65230;SDS011;51813;40.666;16.602;2023-11-21T09:13:40;2.88;;;1.63;;
65230;SDS011;51813;40.666;16.602;2023-11-21T09:16:06;2.80;;;1.80;;
65230;SDS011;51813;40.666;16.602;2023-11-21T09:18:32;2.95;;;1.80;;
65230;SDS011;51813;40.666;16.602;2023-11-21T09:20:57;2.78;;;1.83;;
65230;SDS011;51813;40.666;16.602;2023-11-21T09:23:23;3.20;;;1.92;;
65230;SDS011;51813;40.666;16.602;2023-11-21T09:25:49;4.10;;;2.20;;
65230;SDS011;51813;40.666;16.602;2023-11-21T09:28:16;3.55;;;2.15;;
65230;SDS011;51813;40.666;16.602;2023-11-21T09:30:43;4.50;;;2.08;;
65230;SDS011;51813;40.666;16.602;2023-11-21T09:33:09;4.10;;;2.30;;
65230;SDS011;51813;40.666;16.602;2023-11-21T09:35:38;4.88;;;2.40;;
65230;SDS011;51813;40.666;16.602;2023-11-21T09:38:04;4.35;;;3.20;;
65230;SDS011;51813;40.666;16.602;2023-11-21T09:40:35;3.95;;;2.40;;
65230;SDS011;51813;40.666;16.602;2023-11-21T09:43:02;3.88;;;2.28;;
65230;SDS011;51813;40.666;16.602;2023-11-21T09:45:44;4.27;;;2.17;;
65230;SDS011;51813;40.666;16.602;2023-11-21T09:48:12;3.47;;;2.25;;
65230;SDS011;51813;40.666;16.602;2023-11-21T09:50:39;4.13;;;2.38;;
65230;SDS011;51813;40.666;16.602;2023-11-21T09:53:17;5.05;;;2.10;;
65230;SDS011;51813;40.666;16.602;2023-11-21T09:55:46;3.63;;;1.90;;
65230;SDS011;51813;40.666;16.602;2023-11-21T09:58:14;4.55;;;2.00;;
65230;SDS011;51813;40.666;16.602;2023-11-21T10:00:43;3.90;;;2.00;;
65230;SDS011;51813;40.666;16.602;2023-11-21T10:05:37;5.15;;;2.30;;
65230;SDS011;51813;40.666;16.602;2023-11-21T10:08:04;4.85;;;2.33;;
65230;SDS011;51813;40.666;16.602;2023-11-21T10:10:35;4.93;;;1.85;;
65230;SDS011;51813;40.666;16.602;2023-11-21T10:13:13;4.03;;;2.30;;
65230;SDS011;51813;40.666;16.602;2023-11-21T10:15:41;5.75;;;2.58;;
65230;SDS011;51813;40.666;16.602;2023-11-21T10:18:13;6.80;;;2.75;;
65230;SDS011;51813;40.666;16.602;2023-11-21T10:20:40;3.85;;;2.17;;
65230;SDS011;51813;40.666;16.602;2023-11-21T10:23:07;5.03;;;2.22;;
65230;SDS011;51813;40.666;16.602;2023-11-21T10:25:36;5.00;;;2.80;;
65230;SDS011;51813;40.666;16.602;2023-11-21T10:28:02;6.60;;;2.90;;
65230;SDS011;51813;40.666;16.602;2023-11-21T10:30:35;5.38;;;2.63;;
65230;SDS011;51813;40.666;16.602;2023-11-21T10:33:02;4.90;;;2.67;;
65230;SDS011;51813;40.666;16.602;2023-11-21T10:35:38;4.65;;;2.47;;
65230;SDS011;51813;40.666;16.602;2023-11-21T10:38:07;4.88;;;2.22;;
65230;SDS011;51813;40.666;16.602;2023-11-21T10:40:38;3.65;;;2.10;;
65230;SDS011;51813;40.666;16.602;2023-11-21T10:43:06;4.20;;;2.20;;
65230;SDS011;51813;40.666;16.602;2023-11-21T10:45:36;3.55;;;2.05;;
65230;SDS011;51813;40.666;16.602;2023-11-21T10:48:05;4.30;;;2.30;;
65230;SDS011;51813;40.666;16.602;2023-11-21T10:50:35;4.20;;;2.10;;
65230;SDS011;51813;40.666;16.602;2023-11-21T10:53:05;3.50;;;2.17;;
65230;SDS011;51813;40.666;16.602;2023-11-21T10:55:31;4.10;;;2.15;;
65230;SDS011;51813;40.666;16.602;2023-11-21T10:58:01;5.18;;;2.45;;
65230;SDS011;51813;40.666;16.602;2023-11-21T11:00:29;3.45;;;2.30;;
65230;SDS011;51813;40.666;16.602;2023-11-21T11:02:56;3.78;;;2.28;;
65230;SDS011;51813;40.666;16.602;2023-11-21T11:05:24;4.35;;;2.35;;
65230;SDS011;51813;40.666;16.602;2023-11-21T11:07:51;6.55;;;2.22;;
65230;SDS011;51813;40.666;16.602;2023-11-21T11:10:27;4.57;;;2.10;;
65230;SDS011;51813;40.666;16.602;2023-11-21T11:12:54;4.03;;;2.13;;
65230;SDS011;51813;40.666;16.602;2023-11-21T11:15:22;3.47;;;2.03;;
65230;SDS011;51813;40.666;16.602;2023-11-21T11:17:48;3.72;;;2.05;;
65230;SDS011;51813;40.666;16.602;2023-11-21T11:20:14;5.18;;;2.35;;
65230;SDS011;51813;40.666;16.602;2023-11-21T11:22:53;4.53;;;1.98;;
65230;SDS011;51813;40.666;16.602;2023-11-21T11:28:27;5.95;;;2.30;;
65230;SDS011;51813;40.666;16.602;2023-11-21T11:36:13;3.70;;;2.15;;
65230;SDS011;51813;40.666;16.602;2023-11-21T11:38:44;4.78;;;2.28;;
65230;SDS011;51813;40.666;16.602;2023-11-21T11:41:11;3.63;;;2.22;;
65230;SDS011;51813;40.666;16.602;2023-11-21T11:43:37;3.80;;;2.40;;
65230;SDS011;51813;40.666;16.602;2023-11-21T11:46:11;5.15;;;2.50;;
65230;SDS011;51813;40.666;16.602;2023-11-21T11:48:40;4.70;;;2.72;;
65230;SDS011;51813;40.666;16.602;2023-11-21T11:51:09;3.80;;;2.60;;
65230;SDS011;51813;40.666;16.602;2023-11-21T11:53:42;3.85;;;2.50;;
65230;SDS011;51813;40.666;16.602;2023-11-21T11:56:20;4.95;;;2.95;;
65230;SDS011;51813;40.666;16.602;2023-11-21T11:58:54;5.50;;;2.90;;
65230;SDS011;51813;40.666;16.602;2023-11-21T12:01:22;6.60;;;2.83;;
65230;SDS011;51813;40.666;16.602;2023-11-21T12:06:42;4.85;;;3.03;;
65230;SDS011;51813;40.666;16.602;2023-11-21T12:09:18;9.18;;;3.53;;
65230;SDS011;51813;40.666;16.602;2023-11-21T12:11:46;4.63;;;3.20;;
65230;SDS011;51813;40.666;16.602;2023-11-21T12:14:16;5.75;;;2.97;;
65230;SDS011;51813;40.666;16.602;2023-11-21T12:16:43;5.28;;;2.92;;
65230;SDS011;51813;40.666;16.602;2023-11-21T12:19:12;6.50;;;3.03;;
65230;SDS011;51813;40.666;16.602;2023-11-21T12:21:38;6.05;;;3.45;;
65230;SDS011;51813;40.666;16.602;2023-11-21T12:24:06;5.30;;;3.17;;
65230;SDS011;51813;40.666;16.602;2023-11-21T12:26:34;4.55;;;2.88;;
65230;SDS011;51813;40.666;16.602;2023-11-21T12:29:01;5.25;;;3.10;;
65230;SDS011;51813;40.666;16.602;2023-11-21T12:31:29;7.93;;;3.58;;
65230;SDS011;51813;40.666;16.602;2023-11-21T12:33:55;4.38;;;2.92;;
65230;SDS011;51813;40.666;16.602;2023-11-21T12:36:22;6.82;;;3.78;;
65230;SDS011;51813;40.666;16.602;2023-11-21T12:38:48;6.50;;;3.00;;
65230;SDS011;51813;40.666;16.602;2023-11-21T12:41:15;5.43;;;3.22;;
65230;SDS011;51813;40.666;16.602;2023-11-21T12:43:42;4.82;;;3.03;;
65230;SDS011;51813;40.666;16.602;2023-11-21T12:46:09;4.72;;;2.92;;
65230;SDS011;51813;40.666;16.602;2023-11-21T12:48:38;5.15;;;2.78;;
65230;SDS011;51813;40.666;16.602;2023-11-21T12:51:09;4.75;;;2.72;;
65230;SDS011;51813;40.666;16.602;2023-11-21T12:53:37;3.90;;;2.55;;
65230;SDS011;51813;40.666;16.602;2023-11-21T12:56:06;4.75;;;2.70;;
65230;SDS011;51813;40.666;16.602;2023-11-21T13:01:00;4.65;;;2.50;;
65230;SDS011;51813;40.666;16.602;2023-11-21T13:03:29;6.28;;;2.70;;
65230;SDS011;51813;40.666;16.602;2023-11-21T13:05:55;5.50;;;2.80;;
65230;SDS011;51813;40.666;16.602;2023-11-21T13:08:22;4.68;;;2.65;;
65230;SDS011;51813;40.666;16.602;2023-11-21T13:10:52;4.88;;;2.40;;
65230;SDS011;51813;40.666;16.602;2023-11-21T13:13:21;4.65;;;2.33;;
65230;SDS011;51813;40.666;16.602;2023-11-21T13:15:52;5.43;;;2.70;;
65230;SDS011;51813;40.666;16.602;2023-11-21T13:18:26;5.10;;;2.72;;
65230;SDS011;51813;40.666;16.602;2023-11-21T13:20:53;3.38;;;2.42;;
65230;SDS011;51813;40.666;16.602;2023-11-21T13:23:23;3.60;;;2.58;;
65230;SDS011;51813;40.666;16.602;2023-11-21T13:25:50;5.15;;;2.70;;
65230;SDS011;51813;40.666;16.602;2023-11-21T13:28:17;5.22;;;2.80;;
65230;SDS011;51813;40.666;16.602;2023-11-21T13:30:49;4.32;;;2.47;;
65230;SDS011;51813;40.666;16.602;2023-11-21T13:33:17;4.10;;;2.65;;
65230;SDS011;51813;40.666;16.602;2023-11-21T13:35:46;3.75;;;2.50;;
65230;SDS011;51813;40.666;16.602;2023-11-21T13:38:16;4.22;;;2.80;;
65230;SDS011;51813;40.666;16.602;2023-11-21T13:40:47;4.38;;;2.60;;
65230;SDS011;51813;40.666;16.602;2023-11-21T13:43:24;4.82;;;3.17;;
65230;SDS011;51813;40.666;16.602;2023-11-21T13:45:51;5.47;;;3.75;;
65230;SDS011;51813;40.666;16.602;2023-11-21T13:48:26;6.70;;;3.88;;
65230;SDS011;51813;40.666;16.602;2023-11-21T13:51:07;6.82;;;3.95;;
65230;SDS011;51813;40.666;16.602;2023-11-21T13:53:42;6.93;;;4.63;;
65230;SDS011;51813;40.666;16.602;2023-11-21T13:56:18;8.82;;;5.57;;
65230;SDS011;51813;40.666;16.602;2023-11-21T13:58:51;9.43;;;6.57;;
65230;SDS011;51813;40.666;16.602;2023-11-21T14:01:22;9.38;;;6.20;;
65230;SDS011;51813;40.666;16.602;2023-11-21T14:03:55;9.05;;;6.50;;
65230;SDS011;51813;40.666;16.602;2023-11-21T14:06:45;11.77;;;7.13;;
65230;SDS011;51813;40.666;16.602;2023-11-21T14:09:19;10.18;;;6.90;;
65230;SDS011;51813;40.666;16.602;2023-11-21T14:11:58;13.23;;;7.05;;
65230;SDS011;51813;40.666;16.602;2023-11-21T14:14:25;10.65;;;6.35;;
65230;SDS011;51813;40.666;16.602;2023-11-21T14:16:55;9.27;;;6.55;;
65230;SDS011;51813;40.666;16.602;2023-11-21T14:19:21;10.25;;;6.53;;
65230;SDS011;51813;40.666;16.602;2023-11-21T14:21:50;9.95;;;6.35;;
65230;SDS011;51813;40.666;16.602;2023-11-21T14:24:16;10.05;;;6.40;;
65230;SDS011;51813;40.666;16.602;2023-11-21T14:26:43;10.63;;;6.15;;
65230;SDS011;51813;40.666;16.602;2023-11-21T14:29:11;9.43;;;5.93;;
65230;SDS011;51813;40.666;16.602;2023-11-21T14:31:39;9.68;;;5.72;;
65230;SDS011;51813;40.666;16.602;2023-11-21T14:34:06;8.15;;;5.78;;
65230;SDS011;51813;40.666;16.602;2023-11-21T14:36:32;8.35;;;5.50;;
65230;SDS011;51813;40.666;16.602;2023-11-21T14:39:02;10.38;;;6.07;;
65230;SDS011;51813;40.666;16.602;2023-11-21T14:41:32;9.05;;;5.20;;
65230;SDS011;51813;40.666;16.602;2023-11-21T14:44:00;8.07;;;4.95;;
65230;SDS011;51813;40.666;16.602;2023-11-21T14:46:27;8.05;;;5.07;;
65230;SDS011;51813;40.666;16.602;2023-11-21T14:48:53;7.50;;;4.45;;
65230;SDS011;51813;40.666;16.602;2023-11-21T14:51:36;7.93;;;4.60;;
65230;SDS011;51813;40.666;16.602;2023-11-21T14:54:22;7.43;;;4.35;;